createdAt,value
2019-04-11T00:01:04.325Z,3.35
2019-04-11T00:03:33.514Z,3.80
2019-04-11T00:06:03.292Z,3.75
2019-04-11T00:08:32.326Z,5.05
2019-04-11T00:11:01.775Z,5.12
2019-04-11T00:13:31.853Z,5.92
2019-04-11T00:16:01.302Z,6.53
2019-04-11T00:18:30.378Z,9.98
2019-04-11T00:21:00.319Z,3.47
2019-04-11T00:23:28.723Z,13.60
2019-04-11T00:25:58.037Z,6.27
2019-04-11T00:28:27.763Z,6.95
2019-04-11T00:30:56.672Z,7.33
2019-04-11T00:33:26.434Z,6.30
2019-04-11T00:35:55.660Z,6.10
2019-04-11T00:38:25.862Z,7.55
2019-04-11T00:40:54.497Z,7.83
2019-04-11T00:43:31.674Z,13.25
2019-04-11T00:45:53.985Z,14.03
2019-04-11T00:48:22.513Z,14.60
2019-04-11T00:50:51.722Z,11.22
2019-04-11T00:53:20.473Z,16.27
2019-04-11T00:55:48.993Z,11.08
2019-04-11T00:58:17.406Z,11.60
2019-04-11T01:00:45.768Z,8.47
2019-04-11T01:03:14.205Z,7.73
2019-04-11T01:05:42.677Z,6.67
2019-04-11T01:08:11.472Z,6.10
2019-04-11T01:10:39.971Z,5.67
2019-04-11T01:13:09.210Z,4.80
2019-04-11T01:20:35.529Z,8.50
2019-04-11T01:23:04.794Z,10.03
2019-04-11T01:28:01.258Z,4.67
2019-04-11T01:30:33.925Z,9.80
2019-04-11T01:33:02.534Z,5.20
2019-04-11T01:35:31.123Z,4.80
2019-04-11T01:37:59.879Z,6.30
2019-04-11T01:40:28.282Z,7.12
2019-04-11T01:42:57.648Z,6.30
2019-04-11T01:45:27.570Z,5.95
2019-04-11T01:47:57.725Z,8.68
2019-04-11T01:50:27.778Z,6.03
2019-04-11T01:52:56.174Z,7.53
2019-04-11T01:55:26.256Z,4.93
2019-04-11T01:57:55.895Z,6.80
2019-04-11T02:00:32.321Z,4.15
2019-04-11T02:03:03.231Z,5.00
2019-04-11T02:05:32.877Z,4.60
2019-04-11T02:08:01.333Z,4.55
2019-04-11T02:10:29.742Z,7.00
2019-04-11T02:12:58.186Z,6.83
2019-04-11T02:15:28.280Z,3.10
2019-04-11T02:17:57.288Z,3.33
2019-04-11T02:20:27.049Z,8.00
2019-04-11T02:23:13.041Z,7.33
2019-04-11T02:25:47.063Z,3.02
2019-04-11T02:28:17.238Z,4.35
2019-04-11T02:30:48.390Z,3.52
2019-04-11T02:33:18.371Z,4.50
2019-04-11T02:35:49.153Z,5.05
2019-04-11T02:38:18.758Z,19.77
2019-04-11T02:40:47.996Z,5.12
2019-04-11T02:43:17.745Z,10.53
2019-04-11T02:46:00.182Z,6.97
2019-04-11T02:48:18.426Z,8.73
2019-04-11T02:50:47.939Z,7.10
2019-04-11T02:53:16.986Z,5.22
2019-04-11T03:00:45.032Z,8.23
2019-04-11T03:03:14.981Z,6.08
2019-04-11T03:05:44.132Z,6.42
2019-04-11T03:08:17.967Z,5.15
2019-04-11T03:10:45.505Z,7.37
2019-04-11T03:13:14.333Z,6.92
2019-04-11T03:15:56.920Z,5.50
2019-04-11T03:18:34.417Z,9.60
2019-04-11T03:20:52.315Z,8.13
2019-04-11T03:23:16.479Z,9.45
2019-04-11T03:25:44.719Z,6.95
2019-04-11T03:28:18.361Z,6.97
2019-04-11T03:31:03.967Z,8.28
2019-04-11T03:34:03.718Z,9.78
2019-04-11T03:38:38.142Z,32.13
2019-04-11T03:41:00.346Z,9.23
2019-04-11T03:43:28.176Z,6.05
2019-04-11T03:46:04.031Z,10.55
2019-04-11T03:48:29.307Z,8.90
2019-04-11T03:50:44.852Z,12.28
2019-04-11T03:53:14.512Z,13.45
2019-04-11T03:55:43.411Z,6.42
2019-04-11T03:58:13.210Z,8.15
2019-04-11T04:00:44.400Z,8.45
2019-04-11T04:03:14.171Z,7.85
2019-04-11T04:05:44.389Z,7.17
2019-04-11T04:08:12.988Z,11.05
2019-04-11T04:13:16.963Z,8.15
2019-04-11T04:16:08.125Z,8.70
2019-04-11T04:18:31.761Z,9.38
2019-04-11T04:21:04.148Z,11.43
2019-04-11T04:23:35.796Z,10.18
2019-04-11T04:26:06.208Z,9.65
2019-04-11T04:28:35.700Z,14.47
2019-04-11T04:31:04.710Z,11.38
2019-04-11T04:38:33.830Z,13.30
2019-04-11T04:41:16.317Z,10.05
2019-04-11T04:43:33.980Z,10.10
2019-04-11T04:46:17.258Z,10.08
2019-04-11T04:48:34.372Z,11.30
2019-04-11T04:51:07.555Z,11.10
2019-04-11T04:53:33.722Z,11.60
2019-04-11T04:56:03.199Z,10.32
2019-04-11T04:58:32.337Z,15.13
2019-04-11T05:01:03.710Z,10.15
2019-04-11T05:03:32.118Z,8.80
2019-04-11T05:06:03.828Z,15.03
2019-04-11T05:08:32.511Z,43.28
2019-04-11T05:11:02.221Z,9.98
2019-04-11T05:13:32.198Z,10.85
2019-04-11T05:16:08.600Z,14.03
2019-04-11T05:18:32.034Z,10.95
2019-04-11T05:21:01.137Z,11.70
2019-04-11T05:23:29.823Z,11.08
2019-04-11T05:25:59.975Z,13.40
2019-04-11T05:28:29.722Z,11.08
2019-04-11T05:30:58.400Z,12.00
2019-04-11T05:33:27.388Z,11.00
2019-04-11T05:35:56.375Z,13.55
2019-04-11T05:38:25.252Z,12.63
2019-04-11T05:40:54.542Z,21.00
2019-04-11T05:51:07.463Z,20.20
2019-04-11T05:53:36.993Z,14.60
2019-04-11T05:56:07.189Z,15.00
2019-04-11T05:58:46.770Z,19.32
2019-04-11T06:01:30.910Z,11.70
2019-04-11T06:04:07.897Z,10.82
2019-04-11T06:06:40.138Z,16.10
2019-04-11T06:09:15.761Z,13.30
2019-04-11T06:11:45.287Z,10.08
2019-04-11T06:14:15.430Z,7.55
2019-04-11T06:16:50.264Z,17.55
2019-04-11T06:19:17.250Z,10.95
2019-04-11T06:21:48.384Z,12.43
2019-04-11T06:24:34.881Z,10.98
2019-04-11T06:27:17.071Z,14.13
2019-04-11T06:30:03.670Z,20.90
2019-04-11T06:32:43.693Z,16.55
2019-04-11T06:35:13.950Z,14.38
2019-04-11T06:38:00.725Z,12.33
2019-04-11T06:40:42.432Z,9.20
2019-04-11T06:43:18.570Z,11.28
2019-04-11T06:46:05.010Z,8.68
2019-04-11T06:48:38.196Z,20.65
2019-04-11T06:51:08.240Z,11.25
2019-04-11T06:53:38.303Z,11.88
2019-04-11T06:56:08.346Z,21.70
2019-04-11T06:58:39.398Z,14.35
2019-04-11T07:01:09.824Z,15.95
2019-04-11T07:03:40.601Z,13.45
2019-04-11T07:06:13.340Z,15.30
2019-04-11T07:08:59.882Z,14.50
2019-04-11T07:11:42.667Z,13.95
2019-04-11T07:14:29.227Z,10.90
2019-04-11T07:17:15.553Z,12.50
2019-04-11T07:20:04.495Z,11.85
2019-04-11T07:22:51.222Z,16.95
2019-04-11T07:25:27.119Z,16.73
2019-04-11T07:28:09.992Z,15.13
2019-04-11T07:30:56.422Z,12.43
2019-04-11T07:33:33.125Z,14.25
2019-04-11T07:36:20.992Z,15.45
2019-04-11T07:38:52.342Z,16.12
2019-04-11T07:41:38.924Z,13.83
2019-04-11T07:44:13.900Z,11.20
2019-04-11T07:47:13.591Z,8.55
2019-04-11T07:49:35.203Z,9.50
2019-04-11T07:52:05.313Z,12.68
2019-04-11T07:54:34.753Z,13.58
2019-04-11T07:57:22.943Z,22.87
2019-04-11T08:00:02.077Z,10.53
2019-04-11T08:02:33.256Z,9.55
2019-04-11T08:05:04.472Z,16.17
2019-04-11T08:07:34.627Z,20.43
2019-04-11T08:10:05.900Z,13.00
2019-04-11T08:12:35.448Z,11.60
2019-04-11T08:15:25.863Z,13.50
2019-04-11T08:17:54.418Z,15.93
2019-04-11T08:20:41.586Z,16.60
2019-04-11T08:23:09.997Z,15.85
2019-04-11T08:25:45.525Z,10.60
2019-04-11T08:28:14.177Z,12.47
2019-04-11T08:31:03.382Z,9.95
2019-04-11T08:36:03.101Z,14.68
2019-04-11T08:38:32.748Z,8.68
2019-04-11T08:41:09.376Z,16.23
2019-04-11T08:43:39.274Z,10.00
2019-04-11T08:46:15.245Z,15.88
2019-04-11T08:48:48.968Z,11.93
2019-04-11T08:51:19.301Z,11.00
2019-04-11T08:54:05.507Z,8.98
2019-04-11T08:56:34.842Z,11.12
2019-04-11T08:59:11.395Z,5.40
2019-04-11T09:01:40.285Z,6.37
2019-04-11T09:04:15.188Z,9.03
2019-04-11T09:06:43.603Z,20.92
2019-04-11T09:09:29.894Z,13.33
2019-04-11T09:12:00.440Z,23.05
2019-04-11T09:14:33.293Z,14.33
2019-04-11T09:17:12.352Z,9.10
2019-04-11T09:19:43.110Z,10.68
2019-04-11T09:22:20.467Z,18.00
2019-04-11T09:24:50.638Z,8.33
2019-04-11T09:27:37.167Z,44.20
2019-04-11T09:30:12.763Z,8.88
2019-04-11T09:32:56.709Z,8.68
2019-04-11T09:35:44.913Z,7.80
2019-04-11T09:38:20.857Z,8.50
2019-04-11T09:41:06.114Z,11.30
2019-04-11T09:43:36.261Z,14.65
2019-04-11T09:46:24.004Z,10.70
2019-04-11T09:49:00.438Z,16.05
2019-04-11T09:51:36.576Z,7.40
2019-04-11T09:54:15.954Z,8.40
2019-04-11T09:56:56.013Z,7.50
2019-04-11T09:59:27.203Z,8.78
2019-04-11T10:02:14.535Z,8.75
2019-04-11T10:04:44.693Z,9.40
2019-04-11T10:07:27.900Z,14.45
2019-04-11T10:10:04.576Z,8.48
2019-04-11T10:12:40.766Z,7.53
2019-04-11T10:15:09.433Z,10.50
2019-04-11T10:17:42.478Z,8.45
2019-04-11T10:20:12.915Z,8.08
2019-04-11T10:22:52.248Z,15.75
2019-04-11T10:25:23.294Z,12.70
2019-04-11T10:27:53.556Z,3.40
2019-04-11T10:30:39.968Z,7.75
2019-04-11T10:33:25.032Z,3.60
2019-04-11T10:36:11.076Z,7.78
2019-04-11T10:38:40.566Z,10.70
2019-04-11T10:41:25.859Z,12.80
2019-04-11T10:43:54.260Z,15.78
2019-04-11T10:46:25.156Z,13.33
2019-04-11T10:49:13.620Z,12.80
2019-04-11T10:51:47.623Z,7.90
2019-04-11T10:54:16.119Z,10.45
2019-04-11T10:57:03.458Z,44.93
2019-04-11T10:59:34.487Z,6.45
2019-04-11T11:02:17.567Z,8.63
2019-04-11T11:04:48.527Z,9.13
2019-04-11T11:07:18.356Z,4.80
2019-04-11T11:09:58.534Z,6.72
2019-04-11T11:12:31.484Z,8.63
2019-04-11T11:15:11.458Z,11.28
2019-04-11T11:18:20.506Z,14.20
2019-04-11T11:20:41.540Z,5.53
2019-04-11T11:23:25.432Z,8.98
2019-04-11T11:25:56.403Z,8.40
2019-04-11T11:28:26.765Z,6.15
2019-04-11T11:31:03.234Z,5.17
2019-04-11T11:33:34.113Z,13.20
2019-04-11T11:36:21.348Z,4.60
2019-04-11T11:39:06.788Z,8.60
2019-04-11T11:41:53.004Z,9.73
2019-04-11T11:44:23.041Z,12.88
2019-04-11T11:47:09.931Z,12.20
2019-04-11T11:49:48.707Z,9.48
2019-04-11T11:52:31.955Z,6.20
2019-04-11T11:54:57.161Z,11.45
2019-04-11T11:57:27.200Z,8.03
2019-04-11T12:00:00.796Z,10.95
2019-04-11T12:02:34.757Z,11.55
2019-04-11T12:05:12.934Z,8.23
2019-04-11T12:07:40.939Z,40.58
2019-04-11T12:10:28.043Z,19.75
2019-04-11T12:13:03.290Z,7.55
2019-04-11T12:15:46.621Z,6.97
2019-04-11T12:18:18.465Z,10.28
2019-04-11T12:21:06.566Z,5.67
2019-04-11T12:24:00.782Z,15.03
2019-04-11T12:26:22.143Z,11.30
2019-04-11T12:28:52.303Z,15.00
2019-04-11T12:31:23.868Z,8.73
2019-04-11T12:34:10.622Z,9.48
2019-04-11T12:36:47.155Z,7.72
2019-04-11T12:39:24.298Z,9.48
2019-04-11T12:41:52.752Z,14.25
2019-04-11T12:44:31.811Z,15.65
2019-04-11T12:47:01.846Z,10.98
2019-04-11T12:49:52.475Z,8.28
2019-04-11T12:52:15.962Z,10.80
2019-04-11T12:54:46.243Z,15.18
2019-04-11T12:57:25.383Z,10.72
2019-04-11T13:00:07.519Z,12.65
2019-04-11T13:02:53.641Z,27.58
2019-04-11T13:05:23.657Z,16.10
2019-04-11T13:08:10.341Z,27.55
2019-04-11T13:10:40.550Z,13.88
2019-04-11T13:13:22.642Z,16.37
2019-04-11T13:15:54.534Z,18.70
2019-04-11T13:18:40.649Z,15.45
2019-04-11T13:21:13.489Z,9.68
2019-04-11T13:23:55.939Z,18.80
2019-04-11T13:26:37.808Z,19.60
2019-04-11T13:29:13.582Z,13.15
2019-04-11T13:31:55.614Z,14.70
2019-04-11T13:34:25.661Z,11.20
2019-04-11T13:37:11.847Z,10.85
2019-04-11T13:39:40.379Z,10.75
2019-04-11T13:42:26.948Z,9.18
2019-04-11T13:44:55.466Z,15.03
2019-04-11T13:47:40.522Z,15.93
2019-04-11T13:50:16.370Z,91.47
2019-04-11T13:52:57.160Z,41.05
2019-04-11T13:55:25.575Z,9.30
2019-04-11T13:58:11.909Z,10.97
2019-04-11T14:00:42.102Z,13.08
2019-04-11T14:03:20.959Z,18.40
2019-04-11T14:05:50.242Z,15.32
2019-04-11T14:08:29.515Z,48.48
2019-04-11T14:13:44.049Z,8.25
2019-04-11T14:16:16.743Z,17.45
2019-04-11T14:19:03.371Z,45.67
2019-04-11T14:21:32.870Z,24.80
2019-04-11T14:24:18.205Z,12.47
2019-04-11T14:26:48.249Z,14.78
2019-04-11T14:29:18.392Z,15.48
2019-04-11T14:31:48.421Z,17.10
2019-04-11T14:34:30.702Z,15.85
2019-04-11T14:37:12.833Z,13.55
2019-04-11T14:39:42.890Z,13.98
2019-04-11T14:42:18.788Z,11.63
2019-04-11T14:44:48.866Z,20.88
2019-04-11T14:47:18.927Z,23.38
2019-04-11T14:49:49.002Z,21.65
2019-04-11T14:52:19.054Z,21.85
2019-04-11T14:54:49.293Z,13.85
2019-04-11T14:57:24.973Z,11.88
2019-04-11T14:59:55.025Z,16.15
2019-04-11T15:02:25.115Z,18.30
2019-04-11T15:05:00.750Z,10.15
2019-04-11T15:07:30.729Z,15.83
2019-04-11T15:10:09.862Z,14.93
2019-04-11T15:12:39.915Z,11.22
2019-04-11T15:15:28.063Z,23.15
2019-04-11T15:17:58.101Z,14.00
2019-04-11T15:20:33.870Z,15.72
2019-04-11T15:23:08.698Z,16.00
2019-04-11T15:25:44.572Z,19.95
2019-04-11T15:28:17.177Z,15.85
2019-04-11T15:30:56.526Z,13.93
2019-04-11T15:36:08.293Z,17.75
2019-04-11T15:38:38.367Z,14.85
2019-04-11T15:41:08.630Z,19.30
2019-04-11T15:43:44.601Z,20.40
2019-04-11T15:46:17.719Z,24.20
2019-04-11T15:49:04.500Z,18.80
2019-04-11T15:51:36.900Z,10.88
2019-04-11T15:54:15.767Z,98.45
2019-04-11T15:56:55.215Z,42.98
2019-04-11T15:59:30.989Z,16.45
2019-04-11T16:02:17.368Z,11.95
2019-04-11T16:04:47.468Z,17.35
2019-04-11T16:07:17.558Z,29.42
2019-04-11T16:09:53.480Z,33.20
2019-04-11T16:12:29.301Z,30.35
2019-04-11T16:15:16.525Z,41.23
2019-04-11T16:18:02.682Z,19.92
2019-04-11T16:20:31.049Z,16.42
2019-04-11T16:23:01.086Z,36.43
2019-04-11T16:25:29.897Z,31.65
2019-04-11T16:28:09.034Z,64.03
2019-04-11T16:30:39.801Z,14.87
2019-04-11T16:33:11.961Z,14.85
2019-04-11T16:35:45.464Z,12.53
2019-04-11T16:38:18.846Z,18.15
2019-04-11T16:41:03.363Z,14.47
2019-04-11T16:43:32.141Z,20.48
2019-04-11T16:46:14.318Z,9.80
2019-04-11T16:48:42.681Z,8.63
2019-04-11T16:51:11.128Z,15.63
2019-04-11T16:53:39.649Z,8.37
2019-04-11T16:56:08.050Z,15.80
2019-04-11T16:58:36.429Z,29.77
2019-04-11T17:01:06.437Z,12.00
2019-04-11T17:03:34.918Z,18.98
2019-04-11T17:06:21.230Z,18.67
2019-04-11T17:08:51.681Z,17.35
2019-04-11T17:11:20.252Z,10.65
2019-04-11T17:13:48.797Z,14.98
2019-04-11T17:16:17.260Z,17.48
2019-04-11T17:18:45.643Z,37.10
2019-04-11T17:21:14.026Z,13.03
2019-04-11T17:23:42.437Z,35.13
2019-04-11T17:26:10.870Z,31.53
2019-04-11T17:28:39.404Z,22.53
2019-04-11T17:31:07.860Z,44.77
2019-04-11T17:33:36.295Z,28.87
2019-04-11T17:36:04.738Z,26.97
2019-04-11T17:38:36.957Z,27.40
2019-04-11T17:41:03.157Z,26.82
2019-04-11T17:43:31.594Z,16.80
2019-04-11T17:45:59.996Z,13.15
2019-04-11T17:48:28.393Z,50.70
2019-04-11T17:50:57.010Z,33.43
2019-04-11T17:53:25.511Z,18.92
2019-04-11T17:55:54.252Z,41.45
2019-04-11T18:00:53.689Z,25.57
2019-04-11T18:03:22.147Z,19.60
2019-04-11T18:05:50.551Z,15.18
2019-04-11T18:08:20.214Z,16.30
2019-04-11T18:10:49.001Z,17.87
2019-04-11T18:13:17.414Z,8.90
2019-04-11T18:15:45.809Z,11.33
2019-04-11T18:18:14.315Z,19.40
2019-04-11T18:20:42.714Z,19.98
2019-04-11T18:23:12.139Z,18.32
2019-04-11T18:25:40.612Z,15.05
2019-04-11T18:28:08.968Z,7.53
2019-04-11T18:30:37.418Z,12.30
2019-04-11T18:33:05.813Z,17.00
2019-04-11T18:35:34.201Z,21.80
2019-04-11T18:38:02.883Z,21.93
2019-04-11T18:40:31.302Z,16.42
2019-04-11T18:42:59.704Z,15.13
2019-04-11T18:45:29.737Z,13.17
2019-04-11T18:47:58.100Z,19.42
2019-04-11T18:50:28.690Z,18.07
2019-04-11T18:52:59.173Z,28.40
2019-04-11T18:55:26.684Z,44.77
2019-04-11T18:57:55.057Z,42.17
2019-04-11T19:00:24.170Z,47.30
2019-04-11T19:02:52.575Z,26.42
2019-04-11T19:05:28.500Z,39.40
2019-04-11T19:07:51.111Z,24.23
2019-04-11T19:10:19.514Z,26.93
2019-04-11T19:12:47.913Z,18.17
2019-04-11T19:15:17.071Z,14.10
2019-04-11T19:22:42.866Z,16.77
2019-04-11T19:25:11.972Z,16.13
2019-04-11T19:27:41.006Z,14.07
2019-04-11T19:30:09.369Z,19.40
2019-04-11T19:32:37.785Z,18.70
2019-04-11T19:35:06.186Z,15.93
2019-04-11T19:37:34.588Z,26.20
2019-04-11T19:40:03.010Z,24.40
2019-04-11T19:42:31.438Z,32.17
2019-04-11T19:45:02.753Z,30.30
2019-04-11T19:47:29.913Z,66.65
2019-04-11T19:49:58.810Z,21.45
2019-04-11T19:54:57.035Z,26.77
2019-04-11T19:57:25.486Z,30.15
2019-04-11T19:59:54.022Z,26.73
2019-04-11T20:02:23.564Z,40.12
2019-04-11T20:04:52.520Z,56.35
2019-04-11T20:07:20.901Z,121.70
2019-04-11T20:09:49.318Z,91.30
2019-04-11T20:12:17.766Z,102.10
2019-04-11T20:14:46.167Z,83.97
2019-04-11T20:17:18.832Z,77.13
2019-04-11T20:19:44.600Z,52.05
2019-04-11T20:22:13.010Z,61.30
2019-04-11T20:24:45.906Z,36.57
2019-04-11T20:27:11.474Z,59.88
2019-04-11T20:29:39.853Z,47.93
2019-04-11T20:32:08.270Z,54.43
2019-04-11T20:34:38.604Z,50.43
2019-04-11T20:37:06.862Z,48.80
2019-04-11T20:39:35.287Z,55.30
2019-04-11T20:42:03.686Z,53.63
2019-04-11T20:44:32.086Z,54.10
2019-04-11T20:47:01.112Z,50.07
2019-04-11T20:49:29.709Z,60.05
2019-04-11T20:51:58.126Z,53.75
2019-04-11T20:54:26.551Z,51.70
2019-04-11T20:56:55.038Z,60.20
2019-04-11T20:59:33.959Z,64.63
2019-04-11T21:01:53.713Z,32.13
2019-04-11T21:04:23.331Z,45.43
2019-04-11T21:06:51.740Z,25.43
2019-04-11T21:09:20.115Z,42.57
2019-04-11T21:11:48.556Z,18.67
2019-04-11T21:14:16.953Z,15.27
2019-04-11T21:16:45.389Z,17.80
2019-04-11T21:19:13.761Z,14.60
2019-04-11T21:21:42.176Z,13.73
2019-04-11T21:24:10.575Z,13.60
2019-04-11T21:26:38.981Z,10.17
2019-04-11T21:29:07.353Z,9.03
2019-04-11T21:31:35.832Z,9.87
2019-04-11T21:34:04.167Z,9.23
2019-04-11T21:36:32.579Z,11.27
2019-04-11T21:39:03.556Z,7.43
2019-04-11T21:41:31.002Z,11.73
2019-04-11T21:43:59.536Z,7.80
2019-04-11T21:46:27.932Z,8.18
2019-04-11T21:48:56.369Z,9.00
2019-04-11T21:51:24.757Z,6.72
2019-04-11T21:53:53.154Z,5.93
2019-04-11T21:56:21.564Z,7.17
2019-04-11T21:58:50.714Z,14.20
2019-04-11T22:01:21.912Z,8.03
2019-04-11T22:03:52.279Z,7.05
2019-04-11T22:06:19.858Z,8.33
2019-04-11T22:08:48.245Z,13.83
2019-04-11T22:11:16.616Z,7.23
2019-04-11T22:13:44.975Z,8.77
2019-04-11T22:16:14.369Z,9.37
2019-04-11T22:18:44.324Z,9.20
2019-04-11T22:21:15.428Z,6.33
2019-04-11T22:23:48.576Z,6.33
2019-04-11T22:26:13.271Z,6.40
2019-04-11T22:28:41.669Z,6.27
2019-04-11T22:31:10.070Z,7.50
2019-04-11T22:33:40.124Z,11.57
2019-04-11T22:36:08.552Z,9.13
2019-04-11T22:38:37.014Z,8.47
2019-04-11T22:41:05.405Z,7.70
2019-04-11T22:43:37.849Z,5.63
2019-04-11T22:46:07.761Z,6.60
2019-04-11T22:48:33.823Z,6.47
2019-04-11T22:51:02.236Z,8.87
2019-04-11T22:53:30.632Z,7.53
2019-04-11T22:55:59.038Z,3.83
2019-04-11T22:58:27.417Z,7.27
2019-04-11T23:00:55.796Z,6.60
2019-04-11T23:03:25.815Z,5.77
2019-04-11T23:05:54.292Z,5.42
2019-04-11T23:08:22.690Z,6.17
2019-04-11T23:10:51.104Z,10.38
2019-04-11T23:13:19.490Z,5.97
2019-04-11T23:15:47.869Z,7.53
2019-04-11T23:18:16.282Z,6.80
2019-04-11T23:20:44.775Z,4.97
2019-04-11T23:23:13.985Z,5.75
2019-04-11T23:25:42.524Z,6.28
2019-04-11T23:28:10.947Z,6.22
2019-04-11T23:30:39.426Z,9.00
2019-04-11T23:33:07.796Z,6.77
2019-04-11T23:35:36.180Z,6.50
2019-04-11T23:38:04.623Z,7.67
2019-04-11T23:40:33.054Z,9.45
2019-04-11T23:43:01.458Z,7.80
2019-04-11T23:45:30.462Z,5.63
2019-04-11T23:47:58.885Z,7.85
2019-04-11T23:50:27.282Z,9.23
2019-04-11T23:52:57.963Z,6.37
2019-04-11T23:55:29.636Z,6.00
2019-04-11T23:57:55.802Z,6.53
